Aviation Digital Data Service (ADDS)

Output produced by METARs form (2226 UTC 25 April 2019)
found at http://aviationweather.gov/metar/data/
 
TAF UKKM 251103Z 2512/2612 16005G10MPS 9999 SCT040 
     TEMPO 2512/2516 19007G12MPS 
     TEMPO 2520/2606 3000 BR SCT007
       
TAF UKKK 251701Z 2518/2618 19003G08MPS 9999 SCT040 TX23/2612Z TN04/2603Z 
     TEMPO 2518/2606 2000 BR FU SCT005 
     BECMG 2606/2608 17005G11MPS
       
TAF UKBB 251700Z 2518/2618 VRB01MPS 6000 NSC TX23/2612Z TN04/2603Z 
     TEMPO 2520/2605 19004MPS 2000 BR FU SCT006 
     BECMG 2606/2607 18005G10MPS CAVOK